Time;durP1;ratioP1;P1;durP2;ratioP2;P2;SDS_P1;SDS_P2;PMS_P1;PMS_P2;Temp;Humidity;BMP_temperature;BMP_pressure;BME280_temperature;BME280_humidity;BME280_pressure;Samples;Min_cycle;Max_cycle;Signal;HPM_P1;HPM_P2
2022/11/26 00:01:00;;;;;;;;;;;5.30;99.90;;;;;;4957701;28;209283;-74
2022/11/26 00:03:26;;;;;;;;;;;5.30;99.90;;;;;;4998230;28;19925;-73
2022/11/26 00:05:53;;;;;;;;;;;5.30;99.90;;;;;;4948174;28;140956;-73
2022/11/26 00:08:21;;;;;;;;;;;5.30;99.90;;;;;;5000609;28;20509;-74
2022/11/26 00:10:49;;;;;;;;;;;5.30;99.90;;;;;;4953536;28;93182;-73
2022/11/26 00:13:20;;;;;;;;;;;5.20;99.90;;;;;;4989177;28;20592;-73
2022/11/26 00:15:47;;;;;;;;;;;5.20;99.90;;;;;;4923250;28;215579;-72
2022/11/26 00:18:14;;;;;;;;;;;5.20;99.90;;;;;;4974947;28;19930;-73
2022/11/26 00:20:40;;;;;;;;;;;5.30;99.90;;;;;;4938653;28;209939;-73
2022/11/26 00:23:14;;;;;;;;;;;5.30;99.90;;;;;;4988032;28;19931;-72
2022/11/26 00:25:44;;;;;;;;;;;5.30;99.90;;;;;;4962569;28;206257;-73
2022/11/26 00:28:19;;;;;;;;;;;5.30;99.90;;;;;;4977921;28;19922;-72
2022/11/26 00:30:45;;;;;;;;;;;5.30;99.90;;;;;;4949443;28;147140;-73
2022/11/26 00:33:11;;;;;;;;;;;5.30;99.90;;;;;;4981143;28;19922;-73
2022/11/26 00:35:37;;;;;;;;;;;5.30;99.90;;;;;;4962824;28;93118;-73
2022/11/26 00:38:03;;;;;;;;;;;5.20;99.90;;;;;;4987873;28;19930;-72
2022/11/26 00:40:31;;;;;;;;;;;5.20;99.90;;;;;;4979984;28;138586;-73
2022/11/26 00:42:57;;;;;;;;;;;5.20;99.90;;;;;;5001372;28;19930;-74
2022/11/26 00:45:24;;;;;;;;;;;5.20;99.90;;;;;;4943349;28;231174;-73
2022/11/26 00:47:51;;;;;;;;;;;5.10;99.90;;;;;;5003662;28;19941;-73
2022/11/26 00:50:18;;;;;;;;;;;5.10;99.90;;;;;;4958655;28;158315;-72
2022/11/26 00:52:46;;;;;;;;;;;5.00;99.90;;;;;;4995236;28;19926;-73
2022/11/26 00:55:26;;;;;;;;;;;5.00;99.90;;;;;;4940171;28;215395;-73
2022/11/26 00:57:52;;;;;;;;;;;4.90;99.90;;;;;;4994642;28;19930;-74
2022/11/26 01:00:20;;;;;;;;;;;4.90;99.90;;;;;;4930831;28;210578;-73
2022/11/26 01:02:46;;;;;;;;;;;4.90;99.90;;;;;;4991482;28;19930;-73
2022/11/26 01:05:13;;;;;;;;;;;4.90;99.90;;;;;;4918162;28;215640;-73
2022/11/26 01:07:39;;;;;;;;;;;4.90;99.90;;;;;;4991529;28;19931;-74
2022/11/26 01:10:05;;;;;;;;;;;5.00;99.90;;;;;;4909134;28;216335;-73
2022/11/26 01:12:31;;;;;;;;;;;4.90;99.90;;;;;;4973951;28;19925;-74
2022/11/26 01:14:57;;;;;;;;;;;4.90;99.90;;;;;;4911606;28;207796;-74
2022/11/26 01:17:23;;;;;;;;;;;4.80;99.90;;;;;;4968929;28;19918;-73
2022/11/26 01:19:49;;;;;;;;;;;4.80;99.90;;;;;;4917842;28;207650;-73
2022/11/26 01:22:20;;;;;;;;;;;4.70;99.90;;;;;;4969714;28;20299;-74
2022/11/26 01:24:46;;;;;;;;;;;4.80;99.90;;;;;;4951655;28;202996;-74
2022/11/26 01:27:12;;;;;;;;;;;4.70;99.90;;;;;;4973084;28;19937;-73
2022/11/26 01:29:37;;;;;;;;;;;4.70;99.90;;;;;;4976600;28;206992;-73
2022/11/26 01:32:04;;;;;;;;;;;4.70;99.90;;;;;;4950864;28;157056;-72
2022/11/26 01:34:30;;;;;;;;;;;4.60;99.90;;;;;;4971433;28;19930;-73
2022/11/26 01:36:56;;;;;;;;;;;4.60;99.90;;;;;;4939491;28;206608;-72
2022/11/26 01:39:22;;;;;;;;;;;4.60;99.90;;;;;;4974444;28;19933;-73
2022/11/26 01:41:48;;;;;;;;;;;4.60;99.90;;;;;;4952125;28;204931;-72
2022/11/26 01:44:16;;;;;;;;;;;4.50;99.90;;;;;;4992035;28;20008;-72
2022/11/26 01:46:42;;;;;;;;;;;4.50;99.90;;;;;;4985227;28;106232;-71
2022/11/26 01:49:19;;;;;;;;;;;4.50;99.90;;;;;;4989242;28;20306;-72
2022/11/26 01:51:46;;;;;;;;;;;4.50;99.90;;;;;;4973001;28;172833;-73
2022/11/26 01:54:12;;;;;;;;;;;4.50;99.90;;;;;;5001934;28;19922;-72
2022/11/26 01:56:39;;;;;;;;;;;4.50;99.90;;;;;;4980507;28;104022;-73
2022/11/26 01:59:09;;;;;;;;;;;4.50;99.90;;;;;;5003295;28;19937;-72
2022/11/26 02:01:35;;;;;;;;;;;4.50;99.90;;;;;;4968508;28;177155;-72
2022/11/26 02:04:07;;;;;;;;;;;4.50;99.90;;;;;;5003063;28;21584;-73
2022/11/26 02:06:33;;;;;;;;;;;4.50;99.90;;;;;;4955249;28;224925;-71
2022/11/26 02:09:00;;;;;;;;;;;4.50;99.90;;;;;;4971678;28;19930;-72
2022/11/26 02:11:27;;;;;;;;;;;4.40;99.90;;;;;;4958953;28;144779;-73
2022/11/26 02:14:01;;;;;;;;;;;4.40;99.90;;;;;;4969847;28;19925;-73
2022/11/26 02:16:27;;;;;;;;;;;4.40;99.90;;;;;;4975025;28;119266;-73
2022/11/26 02:19:19;;;;;;;;;;;4.30;99.90;;;;;;5008537;28;19947;-73
2022/11/26 02:21:52;;;;;;;;;;;4.30;99.90;;;;;;4904284;28;162649;-73
2022/11/26 02:24:18;;;;;;;;;;;4.20;99.90;;;;;;4967839;28;20367;-72
2022/11/26 02:26:56;;;;;;;;;;;4.20;99.90;;;;;;4912707;28;26798;-72
2022/11/26 02:29:26;;;;;;;;;;;4.20;99.90;;;;;;4953804;28;20406;-74
2022/11/26 02:31:54;;;;;;;;;;;4.20;99.90;;;;;;4916462;28;208476;-72
2022/11/26 02:34:39;;;;;;;;;;;4.20;99.90;;;;;;4951229;28;19930;-74
2022/11/26 02:37:28;;;;;;;;;;;4.20;99.90;;;;;;4913422;28;207286;-72
2022/11/26 02:39:55;;;;;;;;;;;4.20;99.90;;;;;;4891477;28;129283;-72
2022/11/26 02:42:25;;;;;;;;;;;4.20;99.90;;;;;;4906181;28;19934;-72
2022/11/26 02:44:54;;;;;;;;;;;4.20;99.90;;;;;;4895455;28;87294;-71
2022/11/26 02:47:21;;;;;;;;;;;4.10;99.90;;;;;;4936745;28;19922;-72
2022/11/26 02:49:48;;;;;;;;;;;4.20;99.90;;;;;;4886143;28;203293;-72
2022/11/26 02:52:15;;;;;;;;;;;4.10;99.90;;;;;;4918761;29;19934;-72
2022/11/26 02:54:42;;;;;;;;;;;4.10;99.90;;;;;;4932779;28;196730;-72
2022/11/26 02:57:11;;;;;;;;;;;4.00;99.90;;;;;;4895221;28;19945;-73
2022/11/26 02:59:37;;;;;;;;;;;4.00;99.90;;;;;;4963127;28;79655;-73
2022/11/26 03:02:29;;;;;;;;;;;4.00;99.90;;;;;;4948002;28;122241;-73
2022/11/26 03:04:56;;;;;;;;;;;4.00;99.90;;;;;;4899265;28;132230;-73
2022/11/26 03:07:23;;;;;;;;;;;4.00;99.90;;;;;;4984523;28;19922;-73
2022/11/26 03:09:49;;;;;;;;;;;4.00;99.90;;;;;;4938938;28;160375;-72
2022/11/26 03:12:16;;;;;;;;;;;4.00;99.90;;;;;;4963437;28;20005;-73
2022/11/26 03:14:42;;;;;;;;;;;4.00;99.90;;;;;;4971317;28;115759;-72
2022/11/26 03:17:09;;;;;;;;;;;4.00;99.90;;;;;;4937784;28;20400;-73
2022/11/26 03:19:34;;;;;;;;;;;4.00;99.90;;;;;;5005635;28;20132;-72
2022/11/26 03:22:00;;;;;;;;;;;4.00;99.90;;;;;;4970101;28;207960;-72
2022/11/26 03:24:26;;;;;;;;;;;4.10;99.90;;;;;;5010597;28;19934;-72
2022/11/26 03:26:52;;;;;;;;;;;4.10;99.90;;;;;;4938537;28;129787;-73
2022/11/26 03:29:18;;;;;;;;;;;4.10;99.90;;;;;;4976733;28;19949;-73
2022/11/26 03:31:44;;;;;;;;;;;4.10;99.90;;;;;;4962260;28;131919;-72
2022/11/26 03:34:10;;;;;;;;;;;4.10;99.90;;;;;;5010887;28;19922;-72
2022/11/26 03:36:36;;;;;;;;;;;4.10;99.90;;;;;;4968756;28;133528;-73
2022/11/26 03:39:02;;;;;;;;;;;4.10;99.90;;;;;;4960439;28;20337;-73
2022/11/26 03:41:28;;;;;;;;;;;4.10;99.90;;;;;;4971612;28;208329;-72
2022/11/26 03:43:54;;;;;;;;;;;4.00;99.90;;;;;;4961770;28;19933;-73
2022/11/26 03:46:20;;;;;;;;;;;4.00;99.90;;;;;;4963611;28;212298;-73
2022/11/26 03:48:46;;;;;;;;;;;4.00;99.90;;;;;;4978041;28;19926;-73
2022/11/26 03:51:12;;;;;;;;;;;4.00;99.90;;;;;;4958496;28;142677;-73
2022/11/26 03:53:38;;;;;;;;;;;4.00;99.90;;;;;;4977025;28;20005;-74
2022/11/26 03:56:04;;;;;;;;;;;4.00;99.90;;;;;;4965237;28;208832;-73
2022/11/26 03:58:30;;;;;;;;;;;4.00;99.90;;;;;;4988608;28;19927;-73
2022/11/26 04:00:56;;;;;;;;;;;4.00;99.90;;;;;;4964675;28;131206;-73
2022/11/26 04:03:22;;;;;;;;;;;4.00;99.90;;;;;;4995251;28;19926;-74
2022/11/26 04:05:48;;;;;;;;;;;4.10;99.90;;;;;;4948748;28;170556;-73
2022/11/26 04:08:14;;;;;;;;;;;4.10;99.90;;;;;;5002963;28;19969;-72
2022/11/26 04:10:39;;;;;;;;;;;4.10;99.90;;;;;;4956737;28;211093;-73
2022/11/26 04:13:05;;;;;;;;;;;4.10;99.90;;;;;;4995392;28;19926;-73
2022/11/26 04:15:31;;;;;;;;;;;4.10;99.90;;;;;;4952058;28;206155;-73
2022/11/26 04:17:57;;;;;;;;;;;4.10;99.90;;;;;;5008897;28;19922;-72
2022/11/26 04:20:23;;;;;;;;;;;4.00;99.90;;;;;;4956952;28;134018;-73
2022/11/26 04:22:49;;;;;;;;;;;4.00;99.90;;;;;;4999972;28;19926;-73
2022/11/26 04:25:15;;;;;;;;;;;4.10;99.90;;;;;;4934886;28;218157;-74
2022/11/26 04:27:41;;;;;;;;;;;4.10;99.90;;;;;;5010799;28;20431;-73
2022/11/26 04:30:07;;;;;;;;;;;4.10;99.90;;;;;;4925215;28;208078;-74
2022/11/26 04:32:38;;;;;;;;;;;4.10;99.90;;;;;;4983172;28;19918;-73
2022/11/26 04:35:05;;;;;;;;;;;4.10;99.90;;;;;;4907195;28;217923;-73
2022/11/26 04:37:31;;;;;;;;;;;4.10;99.90;;;;;;4989421;28;19926;-73
2022/11/26 04:39:57;;;;;;;;;;;4.10;99.90;;;;;;4936715;28;205788;-73
2022/11/26 04:42:23;;;;;;;;;;;4.10;99.90;;;;;;4980363;28;19919;-71
2022/11/26 04:44:49;;;;;;;;;;;4.10;99.90;;;;;;4938667;28;206867;-72
2022/11/26 04:47:16;;;;;;;;;;;4.10;99.90;;;;;;5004572;28;19926;-73
2022/11/26 04:49:42;;;;;;;;;;;4.10;99.90;;;;;;4990481;28;205980;-73
2022/11/26 04:52:08;;;;;;;;;;;4.20;99.90;;;;;;4962086;28;287400;-72
2022/11/26 04:54:34;;;;;;;;;;;4.10;99.90;;;;;;5003457;28;19923;-72
2022/11/26 04:57:00;;;;;;;;;;;4.10;99.90;;;;;;4939668;28;148037;-71
2022/11/26 04:59:26;;;;;;;;;;;4.10;99.90;;;;;;4987117;28;20314;-73
2022/11/26 05:01:52;;;;;;;;;;;4.10;99.90;;;;;;4969298;28;207973;-72
2022/11/26 05:04:19;;;;;;;;;;;4.10;99.90;;;;;;4978085;28;20315;-73
2022/11/26 05:06:46;;;;;;;;;;;4.10;99.90;;;;;;4943715;28;206892;-72
2022/11/26 05:09:12;;;;;;;;;;;4.20;99.90;;;;;;5003971;28;20411;-73
2022/11/26 05:11:38;;;;;;;;;;;4.20;99.90;;;;;;4956891;28;184110;-72
2022/11/26 05:14:04;;;;;;;;;;;4.20;99.90;;;;;;4972536;28;19984;-74
2022/11/26 05:16:30;;;;;;;;;;;4.20;99.90;;;;;;4936102;28;209438;-73
2022/11/26 05:18:56;;;;;;;;;;;4.20;99.90;;;;;;4962058;28;20964;-73
2022/11/26 05:21:22;;;;;;;;;;;4.20;99.90;;;;;;4941093;28;174314;-73
2022/11/26 05:23:48;;;;;;;;;;;4.20;99.90;;;;;;4952061;28;20073;-73
2022/11/26 05:26:14;;;;;;;;;;;4.20;99.90;;;;;;4958961;28;173107;-73
2022/11/26 05:28:40;;;;;;;;;;;4.20;99.90;;;;;;4991931;28;19936;-73
2022/11/26 05:31:05;;;;;;;;;;;4.20;99.90;;;;;;4950405;28;210837;-73
2022/11/26 05:33:31;;;;;;;;;;;4.20;99.90;;;;;;4996250;28;19936;-73
2022/11/26 05:35:57;;;;;;;;;;;4.20;99.90;;;;;;4963663;28;135309;-73
2022/11/26 05:38:23;;;;;;;;;;;4.20;99.90;;;;;;5000448;28;19930;-72
2022/11/26 05:40:49;;;;;;;;;;;4.20;99.90;;;;;;4963462;28;196146;-72
2022/11/26 05:43:16;;;;;;;;;;;4.20;99.90;;;;;;5011868;28;19991;-72
2022/11/26 05:45:43;;;;;;;;;;;4.30;99.90;;;;;;4926357;28;206719;-72
2022/11/26 05:48:09;;;;;;;;;;;4.30;99.90;;;;;;4962683;28;19931;-73
2022/11/26 05:50:34;;;;;;;;;;;4.30;99.90;;;;;;4935327;28;212941;-72
2022/11/26 05:53:00;;;;;;;;;;;4.30;99.90;;;;;;5006255;28;19930;-73
2022/11/26 05:55:26;;;;;;;;;;;4.30;99.90;;;;;;4941955;28;209400;-72
2022/11/26 05:57:52;;;;;;;;;;;4.30;99.90;;;;;;4978245;28;19926;-72
2022/11/26 06:00:18;;;;;;;;;;;4.30;99.90;;;;;;4935075;28;206694;-73
2022/11/26 06:02:44;;;;;;;;;;;4.30;99.90;;;;;;5013671;28;19937;-73
2022/11/26 06:05:10;;;;;;;;;;;4.30;99.90;;;;;;4925610;28;218381;-74
2022/11/26 06:07:37;;;;;;;;;;;4.30;99.90;;;;;;4998306;28;20579;-72
2022/11/26 06:10:13;;;;;;;;;;;4.30;99.90;;;;;;4955284;28;203318;-74
2022/11/26 06:12:39;;;;;;;;;;;4.30;99.90;;;;;;5004836;28;19922;-73
2022/11/26 06:15:05;;;;;;;;;;;4.30;99.90;;;;;;4964666;28;206826;-73
2022/11/26 06:17:31;;;;;;;;;;;4.30;99.90;;;;;;4997412;28;19929;-74
2022/11/26 06:19:57;;;;;;;;;;;4.40;99.90;;;;;;4925561;28;215672;-73
2022/11/26 06:22:23;;;;;;;;;;;4.40;99.90;;;;;;5016454;28;19922;-73
2022/11/26 06:24:49;;;;;;;;;;;4.30;99.90;;;;;;4929615;28;209855;-72
2022/11/26 06:27:15;;;;;;;;;;;4.30;99.90;;;;;;5014187;28;20257;-73
2022/11/26 06:29:41;;;;;;;;;;;4.30;99.90;;;;;;4961398;28;206752;-71
2022/11/26 06:32:07;;;;;;;;;;;4.30;99.90;;;;;;4967893;28;78129;-73
2022/11/26 06:34:33;;;;;;;;;;;4.20;99.90;;;;;;4972997;28;20033;-73
2022/11/26 06:36:59;;;;;;;;;;;4.20;99.90;;;;;;4961116;28;187191;-72
2022/11/26 06:39:25;;;;;;;;;;;4.20;99.90;;;;;;5008431;28;19926;-73
2022/11/26 06:41:51;;;;;;;;;;;4.20;99.90;;;;;;4920841;28;214998;-73
2022/11/26 06:44:16;;;;;;;;;;;4.20;99.90;;;;;;4990078;28;19930;-73
2022/11/26 06:46:42;;;;;;;;;;;4.20;99.90;;;;;;4938564;28;179577;-72
2022/11/26 06:49:09;;;;;;;;;;;4.20;99.90;;;;;;4985023;28;20366;-73
2022/11/26 06:51:35;;;;;;;;;;;4.20;99.90;;;;;;4947322;28;212362;-73
2022/11/26 06:54:01;;;;;;;;;;;4.20;99.90;;;;;;4966827;28;19930;-72
2022/11/26 06:56:26;;;;;;;;;;;4.20;99.90;;;;;;4949995;28;124072;-73
2022/11/26 06:58:56;;;;;;;;;;;4.20;99.90;;;;;;4967484;28;19930;-73
2022/11/26 07:01:23;;;;;;;;;;;4.20;99.90;;;;;;4931029;28;216848;-74
2022/11/26 07:03:50;;;;;;;;;;;4.20;99.90;;;;;;4946706;28;19934;-73
2022/11/26 07:06:17;;;;;;;;;;;4.20;99.90;;;;;;4938590;28;213094;-73
2022/11/26 07:08:43;;;;;;;;;;;4.20;99.90;;;;;;4974647;28;19925;-73
2022/11/26 07:11:09;;;;;;;;;;;4.20;99.90;;;;;;4969893;28;144997;-72
2022/11/26 07:13:36;;;;;;;;;;;4.20;99.90;;;;;;4979900;28;19926;-73
2022/11/26 07:16:02;;;;;;;;;;;4.10;99.90;;;;;;4970444;28;200613;-72
2022/11/26 07:18:28;;;;;;;;;;;4.10;99.90;;;;;;4978711;28;20304;-73
2022/11/26 07:20:54;;;;;;;;;;;4.10;99.90;;;;;;4947606;28;218189;-72
2022/11/26 07:23:21;;;;;;;;;;;4.10;99.90;;;;;;4978815;28;19936;-72
2022/11/26 07:25:47;;;;;;;;;;;4.10;99.90;;;;;;4959007;28;145634;-72
2022/11/26 07:28:13;;;;;;;;;;;4.10;99.90;;;;;;5002806;28;20425;-72
2022/11/26 07:30:39;;;;;;;;;;;4.20;99.90;;;;;;4963733;28;198561;-72
2022/11/26 07:33:05;;;;;;;;;;;4.20;99.90;;;;;;4998701;28;19922;-72
2022/11/26 07:35:31;;;;;;;;;;;4.20;99.90;;;;;;4966082;28;208660;-72
2022/11/26 07:37:57;;;;;;;;;;;4.20;99.90;;;;;;4996850;28;19956;-72
2022/11/26 07:40:23;;;;;;;;;;;4.20;99.90;;;;;;4960394;28;121179;-73
2022/11/26 07:42:49;;;;;;;;;;;4.30;99.90;;;;;;5001958;28;20399;-72
2022/11/26 07:45:15;;;;;;;;;;;4.30;99.90;;;;;;4966209;28;121661;-72
2022/11/26 07:47:41;;;;;;;;;;;4.30;99.90;;;;;;5008419;28;19930;-73
2022/11/26 07:50:07;;;;;;;;;;;4.40;99.90;;;;;;4965806;28;164307;-74
2022/11/26 07:52:35;;;;;;;;;;;4.40;99.90;;;;;;5030847;28;19929;-73
2022/11/26 07:55:02;;;;;;;;;;;4.50;99.90;;;;;;4983334;28;127651;-72
2022/11/26 07:57:28;;;;;;;;;;;4.60;99.90;;;;;;5022232;28;19929;-72
2022/11/26 07:59:54;;;;;;;;;;;4.60;99.90;;;;;;4978889;28;207257;-72
2022/11/26 08:02:20;;;;;;;;;;;4.60;99.90;;;;;;5007330;28;19992;-72
2022/11/26 08:04:46;;;;;;;;;;;4.60;99.90;;;;;;4941882;28;210271;-73
2022/11/26 08:07:12;;;;;;;;;;;4.70;99.90;;;;;;4968177;28;19923;-73
2022/11/26 08:09:38;;;;;;;;;;;4.70;99.90;;;;;;4979366;28;210645;-73
2022/11/26 08:12:04;;;;;;;;;;;4.80;99.90;;;;;;4955948;28;207130;-70
2022/11/26 08:14:30;;;;;;;;;;;4.80;99.90;;;;;;4960152;28;19930;-72
2022/11/26 08:16:56;;;;;;;;;;;4.80;99.90;;;;;;4945740;28;206867;-72
2022/11/26 08:19:22;;;;;;;;;;;4.80;99.90;;;;;;4962049;28;20363;-72
2022/11/26 08:21:48;;;;;;;;;;;4.80;99.90;;;;;;4935658;28;211580;-72
2022/11/26 08:24:15;;;;;;;;;;;4.90;99.90;;;;;;4957598;28;20095;-72
2022/11/26 08:26:41;;;;;;;;;;;4.90;99.90;;;;;;4980572;28;136052;-73
2022/11/26 08:29:07;;;;;;;;;;;5.00;99.90;;;;;;4997817;28;19930;-72
2022/11/26 08:31:33;;;;;;;;;;;5.00;99.90;;;;;;4951072;28;217134;-72
2022/11/26 08:33:59;;;;;;;;;;;5.10;99.90;;;;;;4957428;28;19926;-73
2022/11/26 08:36:26;;;;;;;;;;;5.20;99.90;;;;;;4952763;28;205012;-72
2022/11/26 08:38:52;;;;;;;;;;;5.20;99.90;;;;;;4964371;28;19930;-72
2022/11/26 08:41:18;;;;;;;;;;;5.30;99.90;;;;;;4917963;28;216334;-73
2022/11/26 08:43:44;;;;;;;;;;;5.40;99.90;;;;;;4959092;28;19954;-73
2022/11/26 08:46:10;;;;;;;;;;;5.50;99.90;;;;;;4945334;28;184913;-73
2022/11/26 08:48:36;;;;;;;;;;;5.60;99.90;;;;;;4975631;28;19923;-72
2022/11/26 08:51:07;;;;;;;;;;;5.70;99.90;;;;;;4975327;28;126133;-73
2022/11/26 08:53:33;;;;;;;;;;;5.80;99.90;;;;;;4979661;28;19926;-73
2022/11/26 08:56:03;;;;;;;;;;;5.80;99.90;;;;;;4968472;28;132174;-72
2022/11/26 08:58:34;;;;;;;;;;;5.80;99.90;;;;;;4977604;28;19926;-72
2022/11/26 09:01:11;;;;;;;;;;;5.90;99.90;;;;;;4962949;28;193557;-72
2022/11/26 09:03:36;;;;;;;;;;;6.00;99.90;;;;;;4991514;28;19922;-72
2022/11/26 09:06:03;;;;;;;;;;;6.00;99.90;;;;;;4967033;28;187436;-72
2022/11/26 09:08:33;;;;;;;;;;;6.10;99.90;;;;;;5012662;28;19922;-71
2022/11/26 09:10:59;;;;;;;;;;;6.10;99.90;;;;;;4951616;28;209123;-72
2022/11/26 09:13:26;;;;;;;;;;;6.10;99.90;;;;;;4989391;28;19922;-72
2022/11/26 09:15:52;;;;;;;;;;;6.20;99.90;;;;;;4974166;28;149481;-73
2022/11/26 09:18:18;;;;;;;;;;;6.20;99.90;;;;;;4993551;28;19926;-72
2022/11/26 09:20:44;;;;;;;;;;;6.20;99.90;;;;;;4969039;28;116024;-72
2022/11/26 09:23:10;;;;;;;;;;;6.30;99.90;;;;;;5023946;28;19926;-72
2022/11/26 09:25:39;;;;;;;;;;;6.30;99.90;;;;;;4971736;28;141701;-73
2022/11/26 09:28:07;;;;;;;;;;;6.30;99.90;;;;;;5001243;28;20282;-72
2022/11/26 09:30:33;;;;;;;;;;;6.40;99.90;;;;;;4929112;28;220360;-72
2022/11/26 09:32:59;;;;;;;;;;;6.40;99.90;;;;;;4956192;28;19937;-73
2022/11/26 09:35:25;;;;;;;;;;;6.50;99.90;;;;;;4924514;28;207826;-73
2022/11/26 09:37:51;;;;;;;;;;;6.50;99.90;;;;;;4974771;28;19922;-73
2022/11/26 09:40:17;;;;;;;;;;;6.50;99.90;;;;;;4914963;28;207289;-73
2022/11/26 09:43:03;;;;;;;;;;;6.60;99.90;;;;;;4967821;28;19934;-72
2022/11/26 09:45:38;;;;;;;;;;;6.60;99.90;;;;;;4923304;28;159849;-73
2022/11/26 09:48:04;;;;;;;;;;;6.70;99.90;;;;;;4994425;28;19926;-73
2022/11/26 09:50:32;;;;;;;;;;;6.70;99.90;;;;;;4932337;28;215932;-72
2022/11/26 09:53:01;;;;;;;;;;;6.70;99.90;;;;;;4980072;28;19934;-73
2022/11/26 09:55:26;;;;;;;;;;;6.80;99.90;;;;;;4966510;28;161753;-72
2022/11/26 09:58:11;;;;;;;;;;;6.80;99.90;;;;;;4983640;28;19929;-73
2022/11/26 10:00:42;;;;;;;;;;;6.80;99.90;;;;;;4969033;28;205903;-74
2022/11/26 10:03:19;;;;;;;;;;;6.90;99.90;;;;;;4986563;28;20350;-73
2022/11/26 10:05:57;;;;;;;;;;;6.90;99.90;;;;;;4930394;28;208040;-73
2022/11/26 10:08:23;;;;;;;;;;;6.90;99.90;;;;;;4987812;28;19933;-73
2022/11/26 10:10:57;;;;;;;;;;;7.00;99.90;;;;;;4948081;28;207017;-73
2022/11/26 10:13:42;;;;;;;;;;;7.10;99.90;;;;;;4991826;28;20075;-74
2022/11/26 10:16:23;;;;;;;;;;;7.10;99.90;;;;;;4937599;28;198707;-74
2022/11/26 10:19:22;;;;;;;;;;;7.20;99.90;;;;;;4953544;28;19933;-72
2022/11/26 10:21:50;;;;;;;;;;;7.20;99.90;;;;;;4919981;28;204420;-75
2022/11/26 10:24:27;;;;;;;;;;;7.30;99.90;;;;;;4951757;28;20012;-71
2022/11/26 10:26:54;;;;;;;;;;;7.30;99.90;;;;;;4905985;28;119566;-74
2022/11/26 10:29:24;;;;;;;;;;;7.30;99.90;;;;;;4963590;28;19929;-74
2022/11/26 10:31:53;;;;;;;;;;;7.40;99.90;;;;;;4904977;28;201356;-72
2022/11/26 10:34:23;;;;;;;;;;;7.40;99.90;;;;;;4968255;28;19931;-75
2022/11/26 10:36:49;;;;;;;;;;;7.40;99.90;;;;;;4907077;28;171632;-74
2022/11/26 10:39:17;;;;;;;;;;;7.50;99.90;;;;;;4937644;28;19939;-72
2022/11/26 10:41:43;;;;;;;;;;;7.50;99.90;;;;;;4906978;28;250938;-74
2022/11/26 10:44:28;;;;;;;;;;;7.50;99.90;;;;;;4940305;28;19936;-74
2022/11/26 10:46:54;;;;;;;;;;;7.60;99.90;;;;;;4927580;28;205440;-74
2022/11/26 10:49:27;;;;;;;;;;;7.60;99.90;;;;;;4965235;28;19937;-74
2022/11/26 10:51:59;;;;;;;;;;;7.70;99.90;;;;;;4909685;28;215293;-74
2022/11/26 10:54:35;;;;;;;;;;;7.70;99.90;;;;;;4984684;28;20391;-76
2022/11/26 10:57:07;;;;;;;;;;;7.70;99.90;;;;;;4955182;28;129106;-75
2022/11/26 10:59:36;;;;;;;;;;;7.70;99.90;;;;;;5012133;28;19922;-75
2022/11/26 11:02:04;;;;;;;;;;;7.70;99.90;;;;;;4979214;28;274540;-75
2022/11/26 11:04:36;;;;;;;;;;;7.80;99.90;;;;;;5015240;28;19933;-74
2022/11/26 11:07:02;;;;;;;;;;;7.80;99.90;;;;;;4972402;28;163328;-76
2022/11/26 11:09:35;;;;;;;;;;;7.80;99.90;;;;;;5011391;28;19937;-75
2022/11/26 11:12:16;;;;;;;;;;;7.90;99.90;;;;;;4969661;28;160565;-75
2022/11/26 11:14:46;;;;;;;;;;;7.90;99.90;;;;;;4981771;28;215565;-76
2022/11/26 11:17:24;;;;;;;;;;;7.90;99.90;;;;;;4955731;28;19926;-75
2022/11/26 11:19:50;;;;;;;;;;;7.90;99.90;;;;;;4921730;28;267951;-74
2022/11/26 11:22:18;;;;;;;;;;;8.10;99.90;;;;;;5028467;28;20005;-75
2022/11/26 11:24:44;;;;;;;;;;;8.10;99.90;;;;;;4985329;28;231677;-77
2022/11/26 11:27:21;;;;;;;;;;;8.10;99.90;;;;;;5002307;28;20398;-76
2022/11/26 11:29:49;;;;;;;;;;;8.10;99.90;;;;;;4967381;28;236489;-75
2022/11/26 11:32:32;;;;;;;;;;;8.10;99.90;;;;;;4977661;28;19921;-76
2022/11/26 11:35:30;;;;;;;;;;;8.20;99.90;;;;;;4934968;28;214441;-75
2022/11/26 11:37:57;;;;;;;;;;;8.20;99.90;;;;;;4914858;29;19939;-75
2022/11/26 11:40:26;;;;;;;;;;;8.20;99.90;;;;;;4879113;29;219374;-77
2022/11/26 11:43:12;;;;;;;;;;;8.30;99.90;;;;;;4927884;29;19931;-75
2022/11/26 11:45:42;;;;;;;;;;;8.30;99.90;;;;;;4879529;29;110257;-75
2022/11/26 11:48:14;;;;;;;;;;;8.30;99.90;;;;;;4938209;28;19930;-75
2022/11/26 11:51:03;;;;;;;;;;;8.40;99.90;;;;;;4904564;28;205408;-76
2022/11/26 11:53:37;;;;;;;;;;;8.40;99.90;;;;;;4876602;29;19924;-74
2022/11/26 11:56:06;;;;;;;;;;;8.40;99.90;;;;;;4845447;29;227014;-74
2022/11/26 11:58:55;;;;;;;;;;;8.40;99.90;;;;;;4892754;29;19932;-74
2022/11/26 12:01:33;;;;;;;;;;;8.50;99.90;;;;;;4848594;29;206814;-74
2022/11/26 12:04:17;;;;;;;;;;;8.50;99.90;;;;;;4869374;29;20708;-75
2022/11/26 12:07:01;;;;;;;;;;;8.50;99.90;;;;;;4838459;29;279666;-74
2022/11/26 12:09:42;;;;;;;;;;;8.50;99.90;;;;;;4877417;29;19948;-74
2022/11/26 12:12:22;;;;;;;;;;;8.50;99.90;;;;;;4859714;29;256349;-74
2022/11/26 12:14:54;;;;;;;;;;;8.50;99.90;;;;;;4915524;28;118582;-74
2022/11/26 12:17:31;;;;;;;;;;;8.50;99.90;;;;;;4935103;29;19937;-74
2022/11/26 12:19:59;;;;;;;;;;;8.50;99.90;;;;;;4869701;29;215000;-75
2022/11/26 12:22:29;;;;;;;;;;;8.50;99.90;;;;;;4932138;29;19926;-75
2022/11/26 12:24:57;;;;;;;;;;;8.60;99.90;;;;;;4886025;28;209056;-75
2022/11/26 12:27:32;;;;;;;;;;;8.50;99.90;;;;;;4943682;28;19930;-74
2022/11/26 12:30:04;;;;;;;;;;;8.60;99.90;;;;;;4886296;28;210559;-74
2022/11/26 12:32:35;;;;;;;;;;;8.60;99.90;;;;;;4985282;28;20299;-73
2022/11/26 12:35:05;;;;;;;;;;;8.60;99.90;;;;;;4961471;28;216204;-74
2022/11/26 12:37:35;;;;;;;;;;;8.50;99.90;;;;;;5025502;28;19929;-75
2022/11/26 12:40:03;;;;;;;;;;;8.60;99.90;;;;;;4935318;28;212577;-75
2022/11/26 12:42:40;;;;;;;;;;;8.60;99.90;;;;;;4986560;28;20313;-73
2022/11/26 12:45:15;;;;;;;;;;;8.60;99.90;;;;;;4934679;28;208958;-74
2022/11/26 12:47:45;;;;;;;;;;;8.60;99.90;;;;;;5009875;28;19937;-73
2022/11/26 12:50:17;;;;;;;;;;;8.60;99.90;;;;;;4933860;28;212934;-73
2022/11/26 12:52:47;;;;;;;;;;;8.60;99.90;;;;;;5009640;28;19930;-73
2022/11/26 12:55:16;;;;;;;;;;;8.70;99.90;;;;;;4931261;28;213113;-73
2022/11/26 12:57:47;;;;;;;;;;;8.70;99.90;;;;;;4994997;28;19930;-73
2022/11/26 13:00:18;;;;;;;;;;;8.70;99.90;;;;;;4931109;28;114417;-73
2022/11/26 13:02:46;;;;;;;;;;;8.80;99.90;;;;;;4977248;28;19929;-72
2022/11/26 13:05:25;;;;;;;;;;;8.80;99.90;;;;;;4917689;28;209366;-74
2022/11/26 13:07:51;;;;;;;;;;;8.70;99.90;;;;;;4996750;28;19934;-73
2022/11/26 13:10:36;;;;;;;;;;;8.80;99.90;;;;;;4959924;28;107778;-73
2022/11/26 13:13:20;;;;;;;;;;;8.90;99.90;;;;;;4975585;28;19933;-73
2022/11/26 13:16:07;;;;;;;;;;;9.10;99.90;;;;;;4953774;28;194388;-75
2022/11/26 13:18:35;;;;;;;;;;;9.10;99.90;;;;;;4976799;28;20418;-73
2022/11/26 13:21:17;;;;;;;;;;;9.20;99.90;;;;;;4973035;28;178037;-72
2022/11/26 13:23:43;;;;;;;;;;;9.10;99.90;;;;;;4995843;28;19933;-73
2022/11/26 13:26:15;;;;;;;;;;;9.00;99.90;;;;;;4973640;28;135762;-73
2022/11/26 13:29:00;;;;;;;;;;;9.10;99.90;;;;;;4987820;28;19923;-73
2022/11/26 13:31:50;;;;;;;;;;;9.00;99.90;;;;;;4975308;28;105170;-74
2022/11/26 13:34:20;;;;;;;;;;;9.00;99.90;;;;;;5002761;28;20584;-73
2022/11/26 13:36:46;;;;;;;;;;;9.00;99.90;;;;;;4970277;28;207713;-73
2022/11/26 13:39:33;;;;;;;;;;;9.00;99.90;;;;;;4974619;28;19926;-74
2022/11/26 13:41:59;;;;;;;;;;;8.90;99.90;;;;;;4969044;28;215611;-73
2022/11/26 13:44:45;;;;;;;;;;;8.90;99.90;;;;;;4979354;28;19930;-74
2022/11/26 13:47:16;;;;;;;;;;;8.90;99.90;;;;;;4963681;28;206977;-73
2022/11/26 13:49:55;;;;;;;;;;;8.90;99.90;;;;;;4984224;28;215238;-74
2022/11/26 13:52:26;;;;;;;;;;;8.90;99.90;;;;;;4975649;28;19926;-75
2022/11/26 13:55:08;;;;;;;;;;;8.90;99.90;;;;;;4947620;28;225670;-75
2022/11/26 13:57:40;;;;;;;;;;;8.90;99.90;;;;;;5016289;28;19933;-74
2022/11/26 14:00:18;;;;;;;;;;;8.80;99.90;;;;;;4968319;28;208722;-74
2022/11/26 14:02:46;;;;;;;;;;;8.80;99.90;;;;;;4993088;28;20438;-74
2022/11/26 14:05:15;;;;;;;;;;;8.80;99.90;;;;;;4943568;28;185869;-73
2022/11/26 14:07:42;;;;;;;;;;;8.80;99.90;;;;;;4997750;28;19922;-73
2022/11/26 14:10:28;;;;;;;;;;;8.80;99.90;;;;;;4965191;28;126375;-74
2022/11/26 14:13:00;;;;;;;;;;;8.70;99.90;;;;;;4981925;28;19926;-73
2022/11/26 14:15:47;;;;;;;;;;;8.70;99.90;;;;;;4976892;28;140449;-73
2022/11/26 14:18:14;;;;;;;;;;;8.70;99.90;;;;;;4974217;28;19945;-73
2022/11/26 14:20:58;;;;;;;;;;;8.60;99.90;;;;;;4946816;28;216828;-76
2022/11/26 14:23:39;;;;;;;;;;;8.60;99.90;;;;;;5008280;28;19945;-74
2022/11/26 14:26:07;;;;;;;;;;;8.60;99.90;;;;;;4971048;28;203907;-74
2022/11/26 14:28:34;;;;;;;;;;;8.60;99.90;;;;;;4981310;28;19930;-74
2022/11/26 14:31:26;;;;;;;;;;;8.60;99.90;;;;;;4969988;28;209519;-73
2022/11/26 14:33:55;;;;;;;;;;;8.60;99.90;;;;;;4976486;28;20351;-74
2022/11/26 14:36:22;;;;;;;;;;;8.50;99.90;;;;;;4935041;28;216451;-74